sensor_id;sensor_type;location;lat;lon;timestamp;P1;durP1;ratioP1;P2;durP2;ratioP2
23680;SDS011;62915;50.832;4.462;2023-09-30T00:01:09;6.50;;;4.57;;
23680;SDS011;62915;50.832;4.462;2023-09-30T00:03:35;6.13;;;3.80;;
23680;SDS011;62915;50.832;4.462;2023-09-30T00:06:02;9.45;;;4.28;;
23680;SDS011;62915;50.832;4.462;2023-09-30T00:08:28;8.07;;;3.80;;
23680;SDS011;62915;50.832;4.462;2023-09-30T00:10:54;5.80;;;4.28;;
23680;SDS011;62915;50.832;4.462;2023-09-30T00:13:20;10.50;;;5.15;;
23680;SDS011;62915;50.832;4.462;2023-09-30T00:15:46;9.90;;;5.45;;
23680;SDS011;62915;50.832;4.462;2023-09-30T00:18:12;7.10;;;4.63;;
23680;SDS011;62915;50.832;4.462;2023-09-30T00:20:38;9.18;;;5.32;;
23680;SDS011;62915;50.832;4.462;2023-09-30T00:23:04;11.27;;;4.95;;
23680;SDS011;62915;50.832;4.462;2023-09-30T00:25:31;10.05;;;5.30;;
23680;SDS011;62915;50.832;4.462;2023-09-30T00:27:57;10.82;;;5.50;;
23680;SDS011;62915;50.832;4.462;2023-09-30T00:30:23;9.82;;;6.13;;
23680;SDS011;62915;50.832;4.462;2023-09-30T00:32:49;14.35;;;6.80;;
23680;SDS011;62915;50.832;4.462;2023-09-30T00:35:14;11.00;;;6.65;;
23680;SDS011;62915;50.832;4.462;2023-09-30T00:37:41;13.48;;;6.45;;
23680;SDS011;62915;50.832;4.462;2023-09-30T00:40:07;10.07;;;6.95;;
23680;SDS011;62915;50.832;4.462;2023-09-30T00:42:39;9.60;;;7.15;;
23680;SDS011;62915;50.832;4.462;2023-09-30T00:45:06;10.15;;;6.32;;
23680;SDS011;62915;50.832;4.462;2023-09-30T00:47:34;13.13;;;7.35;;
23680;SDS011;62915;50.832;4.462;2023-09-30T00:50:01;10.55;;;7.22;;
23680;SDS011;62915;50.832;4.462;2023-09-30T00:52:29;11.13;;;8.30;;
23680;SDS011;62915;50.832;4.462;2023-09-30T00:54:56;13.90;;;8.80;;
23680;SDS011;62915;50.832;4.462;2023-09-30T00:57:22;12.05;;;8.45;;
23680;SDS011;62915;50.832;4.462;2023-09-30T00:59:50;15.02;;;8.75;;
23680;SDS011;62915;50.832;4.462;2023-09-30T01:02:17;13.40;;;8.57;;
23680;SDS011;62915;50.832;4.462;2023-09-30T01:04:43;17.60;;;9.23;;
23680;SDS011;62915;50.832;4.462;2023-09-30T01:07:09;13.43;;;8.75;;
23680;SDS011;62915;50.832;4.462;2023-09-30T01:09:36;18.65;;;9.02;;
23680;SDS011;62915;50.832;4.462;2023-09-30T01:12:02;14.73;;;9.77;;
23680;SDS011;62915;50.832;4.462;2023-09-30T01:14:29;18.10;;;9.68;;
23680;SDS011;62915;50.832;4.462;2023-09-30T01:16:56;15.32;;;10.05;;
23680;SDS011;62915;50.832;4.462;2023-09-30T01:19:23;12.07;;;9.05;;
23680;SDS011;62915;50.832;4.462;2023-09-30T01:21:58;12.82;;;9.32;;
23680;SDS011;62915;50.832;4.462;2023-09-30T01:24:28;11.82;;;9.52;;
23680;SDS011;62915;50.832;4.462;2023-09-30T01:26:57;16.75;;;9.15;;
23680;SDS011;62915;50.832;4.462;2023-09-30T01:29:23;13.40;;;9.55;;
23680;SDS011;62915;50.832;4.462;2023-09-30T01:31:50;14.02;;;8.57;;
23680;SDS011;62915;50.832;4.462;2023-09-30T01:34:17;13.30;;;8.82;;
23680;SDS011;62915;50.832;4.462;2023-09-30T01:36:43;13.73;;;8.95;;
23680;SDS011;62915;50.832;4.462;2023-09-30T01:39:09;12.57;;;8.23;;
23680;SDS011;62915;50.832;4.462;2023-09-30T01:41:36;14.90;;;8.40;;
23680;SDS011;62915;50.832;4.462;2023-09-30T01:44:02;13.13;;;8.57;;
23680;SDS011;62915;50.832;4.462;2023-09-30T01:46:28;10.95;;;7.43;;
23680;SDS011;62915;50.832;4.462;2023-09-30T01:48:54;16.33;;;8.05;;
23680;SDS011;62915;50.832;4.462;2023-09-30T01:51:20;14.82;;;8.25;;
23680;SDS011;62915;50.832;4.462;2023-09-30T01:53:47;15.63;;;7.88;;
23680;SDS011;62915;50.832;4.462;2023-09-30T01:56:13;16.48;;;8.48;;
23680;SDS011;62915;50.832;4.462;2023-09-30T01:58:39;15.13;;;8.07;;
23680;SDS011;62915;50.832;4.462;2023-09-30T02:01:05;13.75;;;7.53;;
23680;SDS011;62915;50.832;4.462;2023-09-30T02:03:31;13.82;;;7.78;;
23680;SDS011;62915;50.832;4.462;2023-09-30T02:05:57;14.98;;;7.50;;
23680;SDS011;62915;50.832;4.462;2023-09-30T02:08:23;11.93;;;6.90;;
23680;SDS011;62915;50.832;4.462;2023-09-30T02:10:49;10.50;;;6.70;;
23680;SDS011;62915;50.832;4.462;2023-09-30T02:13:16;14.13;;;7.53;;
23680;SDS011;62915;50.832;4.462;2023-09-30T02:15:42;10.45;;;6.60;;
23680;SDS011;62915;50.832;4.462;2023-09-30T02:18:08;10.88;;;6.47;;
23680;SDS011;62915;50.832;4.462;2023-09-30T02:20:34;14.02;;;7.07;;
23680;SDS011;62915;50.832;4.462;2023-09-30T02:23:05;10.15;;;6.35;;
23680;SDS011;62915;50.832;4.462;2023-09-30T02:25:31;13.25;;;6.82;;
23680;SDS011;62915;50.832;4.462;2023-09-30T02:27:58;12.23;;;6.03;;
23680;SDS011;62915;50.832;4.462;2023-09-30T02:30:24;15.50;;;6.50;;
23680;SDS011;62915;50.832;4.462;2023-09-30T02:32:50;14.63;;;6.65;;
23680;SDS011;62915;50.832;4.462;2023-09-30T02:35:16;15.25;;;6.50;;
23680;SDS011;62915;50.832;4.462;2023-09-30T02:37:42;12.30;;;6.47;;
23680;SDS011;62915;50.832;4.462;2023-09-30T02:40:08;12.52;;;6.15;;
23680;SDS011;62915;50.832;4.462;2023-09-30T02:42:36;12.27;;;6.05;;
23680;SDS011;62915;50.832;4.462;2023-09-30T02:45:03;13.40;;;5.95;;
23680;SDS011;62915;50.832;4.462;2023-09-30T02:47:30;14.77;;;6.30;;
23680;SDS011;62915;50.832;4.462;2023-09-30T02:49:57;11.50;;;6.03;;
23680;SDS011;62915;50.832;4.462;2023-09-30T02:52:23;13.60;;;5.50;;
23680;SDS011;62915;50.832;4.462;2023-09-30T02:54:49;13.55;;;5.90;;
23680;SDS011;62915;50.832;4.462;2023-09-30T02:57:15;12.23;;;5.40;;
23680;SDS011;62915;50.832;4.462;2023-09-30T02:59:41;12.38;;;6.53;;
23680;SDS011;62915;50.832;4.462;2023-09-30T03:02:07;13.50;;;6.30;;
23680;SDS011;62915;50.832;4.462;2023-09-30T03:04:33;15.60;;;7.00;;
23680;SDS011;62915;50.832;4.462;2023-09-30T03:06:58;12.35;;;6.85;;
23680;SDS011;62915;50.832;4.462;2023-09-30T03:09:25;13.75;;;6.25;;
23680;SDS011;62915;50.832;4.462;2023-09-30T03:11:51;10.50;;;6.55;;
23680;SDS011;62915;50.832;4.462;2023-09-30T03:14:16;14.50;;;6.43;;
23680;SDS011;62915;50.832;4.462;2023-09-30T03:16:43;10.60;;;6.40;;
23680;SDS011;62915;50.832;4.462;2023-09-30T03:19:09;14.05;;;7.25;;
23680;SDS011;62915;50.832;4.462;2023-09-30T03:21:36;13.48;;;6.70;;
23680;SDS011;62915;50.832;4.462;2023-09-30T03:24:05;13.95;;;6.40;;
23680;SDS011;62915;50.832;4.462;2023-09-30T03:26:33;12.07;;;6.75;;
23680;SDS011;62915;50.832;4.462;2023-09-30T03:28:59;13.88;;;7.00;;
23680;SDS011;62915;50.832;4.462;2023-09-30T03:31:25;15.43;;;7.47;;
23680;SDS011;62915;50.832;4.462;2023-09-30T03:33:51;15.25;;;7.47;;
23680;SDS011;62915;50.832;4.462;2023-09-30T03:36:21;17.40;;;6.93;;
23680;SDS011;62915;50.832;4.462;2023-09-30T03:38:49;15.90;;;6.90;;
23680;SDS011;62915;50.832;4.462;2023-09-30T03:41:17;18.90;;;7.32;;
23680;SDS011;62915;50.832;4.462;2023-09-30T03:43:44;15.00;;;7.03;;
23680;SDS011;62915;50.832;4.462;2023-09-30T03:46:10;14.80;;;7.57;;
23680;SDS011;62915;50.832;4.462;2023-09-30T03:48:37;16.13;;;7.38;;
23680;SDS011;62915;50.832;4.462;2023-09-30T03:51:11;18.55;;;7.63;;
23680;SDS011;62915;50.832;4.462;2023-09-30T03:53:39;18.10;;;6.95;;
23680;SDS011;62915;50.832;4.462;2023-09-30T03:56:08;14.38;;;6.93;;
23680;SDS011;62915;50.832;4.462;2023-09-30T03:58:37;14.65;;;7.28;;
23680;SDS011;62915;50.832;4.462;2023-09-30T04:01:06;15.15;;;7.35;;
23680;SDS011;62915;50.832;4.462;2023-09-30T04:03:36;15.70;;;6.80;;
23680;SDS011;62915;50.832;4.462;2023-09-30T04:06:04;17.05;;;7.43;;
23680;SDS011;62915;50.832;4.462;2023-09-30T04:08:33;13.55;;;7.35;;
23680;SDS011;62915;50.832;4.462;2023-09-30T04:11:00;20.35;;;8.43;;
23680;SDS011;62915;50.832;4.462;2023-09-30T04:13:28;13.25;;;7.43;;
23680;SDS011;62915;50.832;4.462;2023-09-30T04:15:54;15.80;;;7.60;;
23680;SDS011;62915;50.832;4.462;2023-09-30T04:18:21;20.90;;;8.25;;
23680;SDS011;62915;50.832;4.462;2023-09-30T04:20:48;22.25;;;8.55;;
23680;SDS011;62915;50.832;4.462;2023-09-30T04:23:13;20.00;;;8.52;;
23680;SDS011;62915;50.832;4.462;2023-09-30T04:25:40;23.55;;;8.35;;
23680;SDS011;62915;50.832;4.462;2023-09-30T04:28:07;19.13;;;8.43;;
23680;SDS011;62915;50.832;4.462;2023-09-30T04:30:34;17.85;;;8.38;;
23680;SDS011;62915;50.832;4.462;2023-09-30T04:33:00;17.65;;;9.20;;
23680;SDS011;62915;50.832;4.462;2023-09-30T04:35:29;19.13;;;8.68;;
23680;SDS011;62915;50.832;4.462;2023-09-30T04:37:55;23.13;;;9.00;;
23680;SDS011;62915;50.832;4.462;2023-09-30T04:40:22;19.85;;;8.57;;
23680;SDS011;62915;50.832;4.462;2023-09-30T04:42:48;22.10;;;9.65;;
23680;SDS011;62915;50.832;4.462;2023-09-30T04:45:14;19.40;;;9.27;;
23680;SDS011;62915;50.832;4.462;2023-09-30T04:47:49;26.65;;;9.20;;
23680;SDS011;62915;50.832;4.462;2023-09-30T04:50:15;22.48;;;8.65;;
23680;SDS011;62915;50.832;4.462;2023-09-30T04:52:41;21.35;;;8.45;;
23680;SDS011;62915;50.832;4.462;2023-09-30T04:55:07;13.60;;;7.85;;
23680;SDS011;62915;50.832;4.462;2023-09-30T04:57:34;22.00;;;8.68;;
23680;SDS011;62915;50.832;4.462;2023-09-30T04:59:59;18.65;;;8.52;;
23680;SDS011;62915;50.832;4.462;2023-09-30T05:02:26;15.88;;;8.80;;
23680;SDS011;62915;50.832;4.462;2023-09-30T05:04:52;22.98;;;9.05;;
23680;SDS011;62915;50.832;4.462;2023-09-30T05:07:19;22.35;;;9.05;;
23680;SDS011;62915;50.832;4.462;2023-09-30T05:09:47;21.55;;;9.05;;
23680;SDS011;62915;50.832;4.462;2023-09-30T05:12:13;17.98;;;8.82;;
23680;SDS011;62915;50.832;4.462;2023-09-30T05:14:38;21.08;;;9.88;;
23680;SDS011;62915;50.832;4.462;2023-09-30T05:17:04;19.55;;;8.43;;
23680;SDS011;62915;50.832;4.462;2023-09-30T05:19:30;23.50;;;9.82;;
23680;SDS011;62915;50.832;4.462;2023-09-30T05:22:01;25.38;;;10.68;;
23680;SDS011;62915;50.832;4.462;2023-09-30T05:24:28;20.02;;;9.85;;
23680;SDS011;62915;50.832;4.462;2023-09-30T05:26:54;27.48;;;10.40;;
23680;SDS011;62915;50.832;4.462;2023-09-30T05:29:20;22.17;;;11.20;;
23680;SDS011;62915;50.832;4.462;2023-09-30T05:31:46;22.08;;;10.10;;
23680;SDS011;62915;50.832;4.462;2023-09-30T05:34:12;21.80;;;10.70;;
23680;SDS011;62915;50.832;4.462;2023-09-30T05:36:37;23.70;;;10.23;;
23680;SDS011;62915;50.832;4.462;2023-09-30T05:39:03;19.88;;;10.23;;
23680;SDS011;62915;50.832;4.462;2023-09-30T05:41:31;24.02;;;11.38;;
23680;SDS011;62915;50.832;4.462;2023-09-30T05:43:57;22.25;;;11.68;;
23680;SDS011;62915;50.832;4.462;2023-09-30T05:46:24;25.02;;;12.23;;
23680;SDS011;62915;50.832;4.462;2023-09-30T05:48:50;21.67;;;12.25;;
23680;SDS011;62915;50.832;4.462;2023-09-30T05:51:17;24.50;;;10.73;;
23680;SDS011;62915;50.832;4.462;2023-09-30T05:53:44;25.23;;;11.45;;
23680;SDS011;62915;50.832;4.462;2023-09-30T05:56:12;24.10;;;10.38;;
23680;SDS011;62915;50.832;4.462;2023-09-30T05:58:40;21.67;;;10.35;;
23680;SDS011;62915;50.832;4.462;2023-09-30T06:01:08;24.80;;;10.27;;
23680;SDS011;62915;50.832;4.462;2023-09-30T06:03:39;23.90;;;11.10;;
23680;SDS011;62915;50.832;4.462;2023-09-30T06:06:14;22.25;;;11.32;;
23680;SDS011;62915;50.832;4.462;2023-09-30T06:08:41;21.92;;;9.15;;
23680;SDS011;62915;50.832;4.462;2023-09-30T06:11:17;21.17;;;10.05;;
23680;SDS011;62915;50.832;4.462;2023-09-30T06:13:44;20.20;;;9.80;;
23680;SDS011;62915;50.832;4.462;2023-09-30T06:16:11;26.30;;;10.52;;
23680;SDS011;62915;50.832;4.462;2023-09-30T06:18:37;21.70;;;10.57;;
23680;SDS011;62915;50.832;4.462;2023-09-30T06:21:03;22.80;;;10.60;;
23680;SDS011;62915;50.832;4.462;2023-09-30T06:23:30;24.77;;;10.57;;
23680;SDS011;62915;50.832;4.462;2023-09-30T06:25:56;26.80;;;11.88;;
23680;SDS011;62915;50.832;4.462;2023-09-30T06:28:24;24.02;;;11.07;;
23680;SDS011;62915;50.832;4.462;2023-09-30T06:30:51;20.58;;;10.55;;
23680;SDS011;62915;50.832;4.462;2023-09-30T06:33:17;24.90;;;11.70;;
23680;SDS011;62915;50.832;4.462;2023-09-30T06:35:43;23.50;;;12.18;;
23680;SDS011;62915;50.832;4.462;2023-09-30T06:38:20;26.90;;;13.10;;
23680;SDS011;62915;50.832;4.462;2023-09-30T06:40:47;29.95;;;13.63;;
23680;SDS011;62915;50.832;4.462;2023-09-30T06:43:16;32.45;;;15.63;;
23680;SDS011;62915;50.832;4.462;2023-09-30T06:45:42;32.85;;;15.55;;
23680;SDS011;62915;50.832;4.462;2023-09-30T06:48:10;29.45;;;14.50;;
23680;SDS011;62915;50.832;4.462;2023-09-30T06:50:43;31.35;;;15.52;;
23680;SDS011;62915;50.832;4.462;2023-09-30T06:53:10;33.63;;;14.73;;
23680;SDS011;62915;50.832;4.462;2023-09-30T06:55:39;32.95;;;15.27;;
23680;SDS011;62915;50.832;4.462;2023-09-30T06:58:05;36.45;;;15.07;;
23680;SDS011;62915;50.832;4.462;2023-09-30T07:00:35;33.35;;;14.73;;
23680;SDS011;62915;50.832;4.462;2023-09-30T07:03:10;31.60;;;14.05;;
23680;SDS011;62915;50.832;4.462;2023-09-30T07:05:36;30.42;;;14.35;;
23680;SDS011;62915;50.832;4.462;2023-09-30T07:08:02;33.65;;;13.43;;
23680;SDS011;62915;50.832;4.462;2023-09-30T07:10:28;29.38;;;13.30;;
23680;SDS011;62915;50.832;4.462;2023-09-30T07:12:55;25.27;;;11.90;;
23680;SDS011;62915;50.832;4.462;2023-09-30T07:15:20;29.08;;;11.88;;
23680;SDS011;62915;50.832;4.462;2023-09-30T07:17:46;31.20;;;13.00;;
23680;SDS011;62915;50.832;4.462;2023-09-30T07:20:12;32.35;;;11.38;;
23680;SDS011;62915;50.832;4.462;2023-09-30T07:22:39;26.55;;;11.48;;
23680;SDS011;62915;50.832;4.462;2023-09-30T07:25:05;30.60;;;12.02;;
23680;SDS011;62915;50.832;4.462;2023-09-30T07:27:32;30.25;;;11.75;;
23680;SDS011;62915;50.832;4.462;2023-09-30T07:29:57;30.17;;;11.45;;
23680;SDS011;62915;50.832;4.462;2023-09-30T07:32:24;29.10;;;11.68;;
23680;SDS011;62915;50.832;4.462;2023-09-30T07:34:49;34.97;;;13.02;;
23680;SDS011;62915;50.832;4.462;2023-09-30T07:37:16;30.55;;;11.40;;
23680;SDS011;62915;50.832;4.462;2023-09-30T07:39:45;29.27;;;11.30;;
23680;SDS011;62915;50.832;4.462;2023-09-30T07:42:11;25.08;;;11.88;;
23680;SDS011;62915;50.832;4.462;2023-09-30T07:44:37;29.52;;;11.98;;
23680;SDS011;62915;50.832;4.462;2023-09-30T07:47:03;32.10;;;12.52;;
23680;SDS011;62915;50.832;4.462;2023-09-30T07:49:31;29.38;;;12.13;;
23680;SDS011;62915;50.832;4.462;2023-09-30T07:52:00;31.70;;;11.05;;
23680;SDS011;62915;50.832;4.462;2023-09-30T07:54:26;28.63;;;10.68;;
23680;SDS011;62915;50.832;4.462;2023-09-30T07:56:51;30.42;;;9.85;;
23680;SDS011;62915;50.832;4.462;2023-09-30T07:59:17;24.67;;;10.38;;
23680;SDS011;62915;50.832;4.462;2023-09-30T08:01:43;26.80;;;9.73;;
23680;SDS011;62915;50.832;4.462;2023-09-30T08:04:09;27.98;;;10.00;;
23680;SDS011;62915;50.832;4.462;2023-09-30T08:06:34;21.13;;;9.98;;
23680;SDS011;62915;50.832;4.462;2023-09-30T08:09:00;27.98;;;9.68;;
23680;SDS011;62915;50.832;4.462;2023-09-30T08:11:28;21.50;;;7.95;;
23680;SDS011;62915;50.832;4.462;2023-09-30T08:13:56;20.40;;;8.23;;
23680;SDS011;62915;50.832;4.462;2023-09-30T08:16:24;26.77;;;8.75;;
23680;SDS011;62915;50.832;4.462;2023-09-30T08:18:49;25.10;;;8.43;;
23680;SDS011;62915;50.832;4.462;2023-09-30T08:21:16;23.70;;;8.10;;
23680;SDS011;62915;50.832;4.462;2023-09-30T08:23:41;28.67;;;8.45;;
23680;SDS011;62915;50.832;4.462;2023-09-30T08:26:09;27.88;;;9.45;;
23680;SDS011;62915;50.832;4.462;2023-09-30T08:28:34;22.38;;;7.85;;
23680;SDS011;62915;50.832;4.462;2023-09-30T08:31:04;21.40;;;7.78;;
23680;SDS011;62915;50.832;4.462;2023-09-30T08:33:30;22.70;;;7.43;;
23680;SDS011;62915;50.832;4.462;2023-09-30T08:36:03;29.10;;;8.80;;
23680;SDS011;62915;50.832;4.462;2023-09-30T08:38:34;24.40;;;7.38;;
23680;SDS011;62915;50.832;4.462;2023-09-30T08:41:03;23.25;;;7.68;;
23680;SDS011;62915;50.832;4.462;2023-09-30T08:43:29;20.50;;;6.75;;
23680;SDS011;62915;50.832;4.462;2023-09-30T08:46:01;18.48;;;6.93;;
23680;SDS011;62915;50.832;4.462;2023-09-30T08:48:29;23.58;;;6.68;;
23680;SDS011;62915;50.832;4.462;2023-09-30T08:50:58;23.25;;;6.85;;
23680;SDS011;62915;50.832;4.462;2023-09-30T08:53:25;24.05;;;7.53;;
23680;SDS011;62915;50.832;4.462;2023-09-30T08:55:53;18.35;;;6.90;;
23680;SDS011;62915;50.832;4.462;2023-09-30T08:58:21;27.80;;;6.95;;
23680;SDS011;62915;50.832;4.462;2023-09-30T09:00:48;20.88;;;6.95;;
23680;SDS011;62915;50.832;4.462;2023-09-30T09:03:15;21.55;;;6.20;;
23680;SDS011;62915;50.832;4.462;2023-09-30T09:05:43;19.67;;;6.10;;
23680;SDS011;62915;50.832;4.462;2023-09-30T09:08:08;16.73;;;6.22;;
23680;SDS011;62915;50.832;4.462;2023-09-30T09:10:34;15.38;;;5.50;;
23680;SDS011;62915;50.832;4.462;2023-09-30T09:13:00;20.83;;;5.68;;
23680;SDS011;62915;50.832;4.462;2023-09-30T09:15:26;18.75;;;5.20;;
23680;SDS011;62915;50.832;4.462;2023-09-30T09:17:53;18.52;;;5.20;;
23680;SDS011;62915;50.832;4.462;2023-09-30T09:20:23;13.68;;;5.25;;
23680;SDS011;62915;50.832;4.462;2023-09-30T09:22:54;22.35;;;5.20;;
23680;SDS011;62915;50.832;4.462;2023-09-30T09:25:21;16.90;;;5.38;;
23680;SDS011;62915;50.832;4.462;2023-09-30T09:27:48;12.68;;;5.00;;
23680;SDS011;62915;50.832;4.462;2023-09-30T09:30:25;16.33;;;4.70;;
23680;SDS011;62915;50.832;4.462;2023-09-30T09:32:58;19.65;;;5.20;;
23680;SDS011;62915;50.832;4.462;2023-09-30T09:35:26;16.77;;;4.70;;
23680;SDS011;62915;50.832;4.462;2023-09-30T09:38:01;18.25;;;4.90;;
23680;SDS011;62915;50.832;4.462;2023-09-30T09:40:35;22.20;;;4.78;;
23680;SDS011;62915;50.832;4.462;2023-09-30T09:43:03;18.80;;;5.07;;
23680;SDS011;62915;50.832;4.462;2023-09-30T09:45:36;14.55;;;4.40;;
23680;SDS011;62915;50.832;4.462;2023-09-30T09:48:06;16.95;;;4.40;;
23680;SDS011;62915;50.832;4.462;2023-09-30T09:50:32;23.30;;;5.18;;
23680;SDS011;62915;50.832;4.462;2023-09-30T09:53:03;12.52;;;4.30;;
23680;SDS011;62915;50.832;4.462;2023-09-30T09:55:29;14.25;;;4.57;;
23680;SDS011;62915;50.832;4.462;2023-09-30T09:57:56;15.02;;;4.55;;
23680;SDS011;62915;50.832;4.462;2023-09-30T10:00:24;13.75;;;4.60;;
23680;SDS011;62915;50.832;4.462;2023-09-30T10:02:51;15.13;;;4.65;;
23680;SDS011;62915;50.832;4.462;2023-09-30T10:05:18;17.50;;;4.75;;
23680;SDS011;62915;50.832;4.462;2023-09-30T10:08:19;14.70;;;4.88;;
23680;SDS011;62915;50.832;4.462;2023-09-30T10:10:39;15.23;;;4.45;;
23680;SDS011;62915;50.832;4.462;2023-09-30T10:13:05;13.88;;;4.28;;
23680;SDS011;62915;50.832;4.462;2023-09-30T10:18:00;14.00;;;4.45;;
23680;SDS011;62915;50.832;4.462;2023-09-30T10:20:39;12.50;;;4.57;;
23680;SDS011;62915;50.832;4.462;2023-09-30T10:23:19;13.60;;;4.43;;
23680;SDS011;62915;50.832;4.462;2023-09-30T10:25:53;18.25;;;4.93;;
23680;SDS011;62915;50.832;4.462;2023-09-30T10:28:46;12.15;;;3.92;;
23680;SDS011;62915;50.832;4.462;2023-09-30T10:38:57;12.20;;;3.42;;
23680;SDS011;62915;50.832;4.462;2023-09-30T10:46:50;16.33;;;4.45;;
23680;SDS011;62915;50.832;4.462;2023-09-30T10:51:52;13.15;;;3.88;;
23680;SDS011;62915;50.832;4.462;2023-09-30T10:54:22;17.38;;;4.57;;
23680;SDS011;62915;50.832;4.462;2023-09-30T10:56:49;11.55;;;3.58;;
23680;SDS011;62915;50.832;4.462;2023-09-30T10:59:18;11.35;;;3.55;;
23680;SDS011;62915;50.832;4.462;2023-09-30T11:01:49;12.52;;;3.33;;
23680;SDS011;62915;50.832;4.462;2023-09-30T11:04:15;10.77;;;3.22;;
23680;SDS011;62915;50.832;4.462;2023-09-30T11:06:41;12.77;;;3.75;;
23680;SDS011;62915;50.832;4.462;2023-09-30T11:09:08;11.85;;;3.50;;
23680;SDS011;62915;50.832;4.462;2023-09-30T11:11:38;11.82;;;3.40;;
23680;SDS011;62915;50.832;4.462;2023-09-30T11:16:50;11.25;;;3.97;;
23680;SDS011;62915;50.832;4.462;2023-09-30T11:19:17;10.70;;;3.17;;
23680;SDS011;62915;50.832;4.462;2023-09-30T11:21:46;10.90;;;3.50;;
23680;SDS011;62915;50.832;4.462;2023-09-30T11:24:16;11.32;;;3.92;;
23680;SDS011;62915;50.832;4.462;2023-09-30T11:26:43;10.93;;;3.63;;
23680;SDS011;62915;50.832;4.462;2023-09-30T11:29:14;9.52;;;3.40;;
23680;SDS011;62915;50.832;4.462;2023-09-30T11:31:41;10.90;;;3.70;;
23680;SDS011;62915;50.832;4.462;2023-09-30T11:34:08;11.77;;;4.10;;
23680;SDS011;62915;50.832;4.462;2023-09-30T11:36:38;11.85;;;3.10;;
23680;SDS011;62915;50.832;4.462;2023-09-30T11:39:07;9.52;;;3.50;;
23680;SDS011;62915;50.832;4.462;2023-09-30T11:41:39;9.98;;;3.13;;
23680;SDS011;62915;50.832;4.462;2023-09-30T11:44:11;9.45;;;3.58;;
23680;SDS011;62915;50.832;4.462;2023-09-30T11:46:53;9.30;;;3.33;;
23680;SDS011;62915;50.832;4.462;2023-09-30T11:49:34;13.52;;;3.75;;
23680;SDS011;62915;50.832;4.462;2023-09-30T11:52:03;7.78;;;3.00;;
23680;SDS011;62915;50.832;4.462;2023-09-30T11:54:46;14.15;;;3.72;;
23680;SDS011;62915;50.832;4.462;2023-09-30T11:57:15;11.70;;;3.70;;
23680;SDS011;62915;50.832;4.462;2023-09-30T11:59:42;10.27;;;3.50;;
23680;SDS011;62915;50.832;4.462;2023-09-30T12:02:10;12.50;;;3.33;;
23680;SDS011;62915;50.832;4.462;2023-09-30T12:04:40;13.25;;;3.20;;
23680;SDS011;62915;50.832;4.462;2023-09-30T12:07:09;8.40;;;2.88;;
23680;SDS011;62915;50.832;4.462;2023-09-30T12:09:36;8.70;;;2.63;;
23680;SDS011;62915;50.832;4.462;2023-09-30T12:12:03;10.88;;;3.10;;
23680;SDS011;62915;50.832;4.462;2023-09-30T12:14:29;13.32;;;3.92;;
23680;SDS011;62915;50.832;4.462;2023-09-30T12:16:58;15.07;;;4.22;;
23680;SDS011;62915;50.832;4.462;2023-09-30T12:19:23;8.68;;;3.25;;
23680;SDS011;62915;50.832;4.462;2023-09-30T12:21:51;8.77;;;3.25;;
23680;SDS011;62915;50.832;4.462;2023-09-30T12:24:17;9.05;;;3.03;;
23680;SDS011;62915;50.832;4.462;2023-09-30T12:26:49;9.88;;;3.47;;
23680;SDS011;62915;50.832;4.462;2023-09-30T12:29:16;8.93;;;2.88;;
23680;SDS011;62915;50.832;4.462;2023-09-30T12:31:44;12.00;;;3.20;;
23680;SDS011;62915;50.832;4.462;2023-09-30T12:34:10;8.90;;;3.10;;
23680;SDS011;62915;50.832;4.462;2023-09-30T12:36:37;8.95;;;3.65;;
23680;SDS011;62915;50.832;4.462;2023-09-30T12:39:04;11.00;;;3.15;;
23680;SDS011;62915;50.832;4.462;2023-09-30T12:41:38;10.63;;;3.38;;
23680;SDS011;62915;50.832;4.462;2023-09-30T12:44:06;15.07;;;3.33;;
23680;SDS011;62915;50.832;4.462;2023-09-30T12:46:33;16.48;;;3.42;;
23680;SDS011;62915;50.832;4.462;2023-09-30T12:49:01;10.80;;;3.38;;
23680;SDS011;62915;50.832;4.462;2023-09-30T12:51:27;8.25;;;2.50;;
23680;SDS011;62915;50.832;4.462;2023-09-30T12:53:53;9.13;;;2.78;;
23680;SDS011;62915;50.832;4.462;2023-09-30T12:56:19;7.72;;;3.03;;
23680;SDS011;62915;50.832;4.462;2023-09-30T12:58:45;7.45;;;3.40;;
23680;SDS011;62915;50.832;4.462;2023-09-30T13:01:11;8.70;;;2.80;;
23680;SDS011;62915;50.832;4.462;2023-09-30T13:03:37;9.18;;;2.85;;
23680;SDS011;62915;50.832;4.462;2023-09-30T13:06:06;11.05;;;2.78;;
23680;SDS011;62915;50.832;4.462;2023-09-30T13:08:32;9.25;;;3.17;;
23680;SDS011;62915;50.832;4.462;2023-09-30T13:11:02;11.57;;;2.75;;
23680;SDS011;62915;50.832;4.462;2023-09-30T13:13:31;11.45;;;3.00;;
23680;SDS011;62915;50.832;4.462;2023-09-30T13:16:04;10.50;;;3.08;;
23680;SDS011;62915;50.832;4.462;2023-09-30T13:18:31;7.53;;;3.00;;
23680;SDS011;62915;50.832;4.462;2023-09-30T13:20:57;9.27;;;3.28;;
23680;SDS011;62915;50.832;4.462;2023-09-30T13:23:23;10.18;;;2.95;;
23680;SDS011;62915;50.832;4.462;2023-09-30T13:25:49;9.40;;;3.53;;
23680;SDS011;62915;50.832;4.462;2023-09-30T13:28:15;9.43;;;3.22;;
23680;SDS011;62915;50.832;4.462;2023-09-30T13:30:41;11.52;;;3.08;;
23680;SDS011;62915;50.832;4.462;2023-09-30T13:33:07;6.55;;;2.90;;
23680;SDS011;62915;50.832;4.462;2023-09-30T13:35:33;7.70;;;2.70;;
23680;SDS011;62915;50.832;4.462;2023-09-30T13:38:01;7.68;;;2.55;;
23680;SDS011;62915;50.832;4.462;2023-09-30T13:40:28;6.15;;;2.63;;
23680;SDS011;62915;50.832;4.462;2023-09-30T13:42:54;7.75;;;2.10;;
23680;SDS011;62915;50.832;4.462;2023-09-30T13:45:22;10.27;;;2.97;;
23680;SDS011;62915;50.832;4.462;2023-09-30T13:47:48;7.43;;;2.88;;
23680;SDS011;62915;50.832;4.462;2023-09-30T13:50:14;8.27;;;3.05;;
23680;SDS011;62915;50.832;4.462;2023-09-30T13:52:41;10.07;;;3.10;;
23680;SDS011;62915;50.832;4.462;2023-09-30T13:55:07;8.65;;;2.92;;
23680;SDS011;62915;50.832;4.462;2023-09-30T13:57:33;7.63;;;2.72;;
23680;SDS011;62915;50.832;4.462;2023-09-30T14:00:01;6.85;;;2.70;;
23680;SDS011;62915;50.832;4.462;2023-09-30T14:02:29;7.00;;;2.78;;
23680;SDS011;62915;50.832;4.462;2023-09-30T14:04:54;8.55;;;3.05;;
23680;SDS011;62915;50.832;4.462;2023-09-30T14:07:20;11.45;;;3.22;;
23680;SDS011;62915;50.832;4.462;2023-09-30T14:09:46;13.93;;;3.47;;
23680;SDS011;62915;50.832;4.462;2023-09-30T14:12:12;20.58;;;7.72;;
23680;SDS011;62915;50.832;4.462;2023-09-30T14:14:38;12.93;;;3.80;;
23680;SDS011;62915;50.832;4.462;2023-09-30T14:17:04;13.27;;;4.07;;
23680;SDS011;62915;50.832;4.462;2023-09-30T14:19:35;7.53;;;3.25;;
23680;SDS011;62915;50.832;4.462;2023-09-30T14:22:01;10.05;;;3.00;;
23680;SDS011;62915;50.832;4.462;2023-09-30T14:24:30;10.40;;;2.90;;
23680;SDS011;62915;50.832;4.462;2023-09-30T14:26:59;19.02;;;3.30;;
23680;SDS011;62915;50.832;4.462;2023-09-30T14:29:26;11.73;;;3.03;;
23680;SDS011;62915;50.832;4.462;2023-09-30T14:31:53;11.80;;;3.38;;
23680;SDS011;62915;50.832;4.462;2023-09-30T14:34:19;7.80;;;2.92;;
23680;SDS011;62915;50.832;4.462;2023-09-30T14:36:45;9.38;;;2.80;;
23680;SDS011;62915;50.832;4.462;2023-09-30T14:39:11;7.88;;;2.58;;
23680;SDS011;62915;50.832;4.462;2023-09-30T14:41:37;7.50;;;2.90;;
23680;SDS011;62915;50.832;4.462;2023-09-30T14:44:03;8.40;;;2.78;;
23680;SDS011;62915;50.832;4.462;2023-09-30T14:46:33;10.25;;;2.90;;
23680;SDS011;62915;50.832;4.462;2023-09-30T14:49:00;5.88;;;2.78;;
23680;SDS011;62915;50.832;4.462;2023-09-30T14:51:26;9.30;;;2.50;;
23680;SDS011;62915;50.832;4.462;2023-09-30T14:53:51;7.50;;;2.55;;
23680;SDS011;62915;50.832;4.462;2023-09-30T14:56:17;9.00;;;2.88;;